This is the latest recevied weather packets stored in our database for station/object 9W2UHF-10. If no packets are shown the sender has not sent any weather packets the latest 10 day(s).
| Time | Temp. | Humidity | Pressure | Rain* | Wind** | Luminosity | Snow |
|---|---|---|---|---|---|---|---|
| 1777828171 | 30.56° C | 69% | 1012.4 hPa | - | - | - | - |
| 1777826971 | 30.56° C | 70% | 1012.6 hPa | - | - | - | - |
| 1777825771 | 30.56° C | 69% | 1012.9 hPa | - | - | - | - |
| 1777819770 | 30.56° C | 69% | 1012.4 hPa | - | - | - | - |
| 1777817370 | 30.56° C | 65% | 1012 hPa | - | - | - | - |
| 1777816170 | 30° C | 65% | 1011.7 hPa | - | - | - | - |
| 1777804223 | 31.67° C | 62% | 1008.7 hPa | - | - | - | - |
| 1777801871 | 31.67° C | 63% | 1009.1 hPa | - | - | - | - |
| 1777801769 | 31.67° C | 63% | 1009.1 hPa | - | - | - | - |
| 1777800610 | 32.22° C | 65% | 1009.6 hPa | - | - | - | - |
| 1777800569 | 32.22° C | 65% | 1009.6 hPa | - | - | - | - |
| 1777799445 | 32.22° C | 65% | 1009.1 hPa | - | - | - | - |
| 1777799369 | 32.22° C | 65% | 1009.1 hPa | - | - | - | - |
| 1777798169 | 32.22° C | 66% | 1009.1 hPa | - | - | - | - |
| 1777796969 | 32.78° C | 64% | 1008.8 hPa | - | - | - | - |
| 1777795769 | 33.89° C | 56% | 1008.3 hPa | - | - | - | - |
| 1777793368 | 34.44° C | 57% | 1008.4 hPa | - | - | - | - |
| 1777790969 | 35° C | 53% | 1009.4 hPa | - | - | - | - |
| 1777789769 | 34.44° C | 54% | 1009.9 hPa | - | - | - | - |
| 1777788734 | 34.44° C | 55% | 1010.1 hPa | - | - | - | - |
| 1777788569 | 34.44° C | 55% | 1010.1 hPa | - | - | - | - |
| 1777787369 | 33.89° C | 57% | 1010.3 hPa | - | - | - | - |
| 1777786169 | 33.89° C | 59% | 1010.9 hPa | - | - | - | - |
| 1777784969 | 33.33° C | 59% | 1011.6 hPa | - | - | - | - |
| 1777783769 | 33.33° C | 62% | 1012 hPa | - | - | - | - |
* Rain since midnight (hover to see other rain measurements)
** Current wind speed in m/s (hover to see current wind gust speed)